Altamonte Springs, Florida
Current Conditions -  °F | °C
As of 10:53 AM on Thursday 23 Oct 2014 (Local Time) from KORL Reporting Station
Clear Clear  
Wind Chill: 77°   Ceiling: Unl
Heat Index: 79°   Visibility: 10mi
Dew Point: 59°   Wind: 12mph
Humidity: 54%   Direction: 60°ENE
Pressure: 30.02"   Gusts: NA
Location:  28.67°N, 81.36°W
Report Text: KORL 231453Z 06010KT 10SM CLR 25/15 A3002 RMK AO2 SLP168 T02500150 53006
Loading
Personal Weather Stations






























Interactive Weather Map
Tropical Storm Tracking
New forecast layout! Learn more

10-Day Weather Forecast

Advertisements
Track Severe Weather on mobile